Knighton, United Kingdom
Current Conditions -  °F | °C
As of 8:50 AM on Sunday 26 Oct 2014 (Local Time) from EGOS Reporting Station
Overcast Overcast  
Wind Chill: 55°   Ceiling: 3700
Heat Index: 55°   Visibility: 6mi
Dew Point: 45°   Wind: 13mph
Humidity: 67%   Direction: 200°SSW
Pressure: 30"   Gusts: NA
Location:  52.35°N, 3.05°W
Report Text: EGOS 260750Z AUTO 20011KT 9999 OVC037/// 13/07 Q1016
Loading
Personal Weather Stations






























Interactive Weather Map New forecast layout! Learn more

10-Day Weather Forecast

Advertisements
Track Severe Weather on mobile